Historyczne dane pomiarowe

Dodano dane terminowe – wersja testowa.

Dane z okresu 1951-2019

Wersja bazy: 1.34 [2019-03-16, lista zmian], aktualizacja planowana na 2019-04-15

Dane meteo z obszaru Polski uzyskane na podstawie danych udostępnionych przez Instytut Meteorologii i Gospodarki Wodnej – Państwowy Instytut Badawczy.

 

Wybierz Datę:    

       

TemperaturaWilgotnośćZachmurzenieWiatrCiśnienieWidzialnośćZjawiska
 Data    tng td wb rh cc ccl cl cm ch dir g1 g2 mslp ppp      
1973-05-16 00:00:00 -4.6--- -4.8 -4.598wxwx11wx--- 838.8 0.7---wxw1
1973-05-16 01:00:00 -5.4------wxwx11wx--- 838.6----wxw1
1973-05-16 02:00:00 -5.8------wxwx16wx--- 838.1----wxw1
1973-05-16 03:00:00 -5.4--- -5.7 -5.398wxwx15wx--- 837.8----wxw1
1973-05-16 04:00:00 -4.6------wxwx10wx--- 838.4----wxw1
1973-05-16 05:00:00 -4.6------wxwx10wx--- 838.4----wxw1
1973-05-16 06:00:00 -4.8--- -5.1 -4.798wxwx11wx--- 838.6 0.2---wxw1
1973-05-16 07:00:00 -4.4------wxwxwx13wx--- 838.8----wxw1
1973-05-16 08:00:00 -3.5------wxwxwx10wx--- 839.3----wxw1
1973-05-16 09:00:00 -3.6--- -4.4 -3.794wxwxwx7wx--- 839.6----wxw1
1973-05-16 10:00:00 -3.5------wxwxwx8wx--- 839.9----wxw1
1973-05-16 11:00:00 -2.8------wxwxwx7wx--- 840.0----wxw1
1973-05-16 12:00:00 -2.0--- -2.3 -2.098wxwxwx7wx--- 839.9 0.1---wxw1
1973-05-16 13:00:00 -1.5------wxwxwx6wx--- 839.9----wxw1
1973-05-16 14:00:00 -1.8------wxwxwx6wx--- 839.9----wx
1973-05-16 15:00:00 -2.1--- -2.4 -2.198wxwxwx5wx--- 839.7----wxw1
1973-05-16 16:00:00 -3.8------wxwx9wx--- 839.8----wxw1
1973-05-16 17:00:00 -3.0------wxwx9wx--- 839.6----wxw1
1973-05-16 18:00:00 -3.6--- -4.4 -3.794wxwx7wx--- 839.8 3.3---wxw1
1973-05-16 19:00:00 -3.8------wxwx9wx--- 839.6----wxw1
1973-05-16 20:00:00 -4.4------wxwxwx7wx--- 839.7----wxw1
1973-05-16 21:00:00 -4.6--- -5.2 -4.696wxwxwx5wx--- 839.6----wxw1
1973-05-16 22:00:00 -4.4------wxwx7wx--- 839.6----wxw1
1973-05-16 23:00:00 -4.4------wxwx6wx--- 839.6----wxw1

 

Źródłem pochodzenia danych jest Instytut Meteorologii i Gospodarki Wodnej – Państwowy Instytut Badawczy. Dane Instytutu Meteorologii i Gospodarki Wodnej – Państwowego Instytutu Badawczego zostały przetworzone.

Dane źródłowe można odnaleźć na stronie https://dane.imgw.pl